createdAt,value
2019-04-05T00:01:08.961Z,22.35
2019-04-05T00:03:39.814Z,27.93
2019-04-05T00:06:10.609Z,19.37
2019-04-05T00:08:41.348Z,18.67
2019-04-05T00:11:12.288Z,19.45
2019-04-05T00:13:43.218Z,19.27
2019-04-05T00:16:13.665Z,18.27
2019-04-05T00:18:46.273Z,21.85
2019-04-05T00:21:16.839Z,22.40
2019-04-05T00:23:47.664Z,18.07
2019-04-05T00:26:18.223Z,18.32
2019-04-05T00:28:51.665Z,19.17
2019-04-05T00:31:21.400Z,20.95
2019-04-05T00:33:51.879Z,18.15
2019-04-05T00:36:22.482Z,20.32
2019-04-05T00:38:53.642Z,20.90
2019-04-05T00:41:24.164Z,24.87
2019-04-05T00:43:54.687Z,21.70
2019-04-05T00:46:25.293Z,22.93
2019-04-05T00:48:55.841Z,19.23
2019-04-05T00:51:26.803Z,22.50
2019-04-05T00:53:57.410Z,19.75
2019-04-05T00:56:28.019Z,23.18
2019-04-05T00:58:58.690Z,22.22
2019-04-05T01:01:29.568Z,17.15
2019-04-05T01:04:00.164Z,19.87
2019-04-05T01:06:31.057Z,20.90
2019-04-05T01:09:01.883Z,19.10
2019-04-05T01:11:33.297Z,21.12
2019-04-05T01:14:04.089Z,23.98
2019-04-05T01:16:36.016Z,24.63
2019-04-05T01:19:07.273Z,20.15
2019-04-05T01:21:42.768Z,21.73
2019-04-05T01:24:14.401Z,24.72
2019-04-05T01:26:46.277Z,23.03
2019-04-05T01:29:17.078Z,21.97
2019-04-05T01:31:47.741Z,21.85
2019-04-05T01:34:18.380Z,19.77
2019-04-05T01:36:50.792Z,25.30
2019-04-05T01:39:21.401Z,29.67
2019-04-05T01:41:52.160Z,26.93
2019-04-05T01:44:23.041Z,23.07
2019-04-05T01:46:53.895Z,24.40
2019-04-05T01:49:24.964Z,23.57
2019-04-05T01:51:55.694Z,20.75
2019-04-05T01:54:29.041Z,21.70
2019-04-05T01:56:58.605Z,21.60
2019-04-05T01:59:29.396Z,24.37
2019-04-05T02:02:00.110Z,22.30
2019-04-05T02:04:30.663Z,21.97
2019-04-05T02:07:01.995Z,21.27
2019-04-05T02:09:32.959Z,23.15
2019-04-05T02:12:03.745Z,22.40
2019-04-05T02:14:34.374Z,22.00
2019-04-05T02:17:05.204Z,18.67
2019-04-05T02:19:35.787Z,20.12
2019-04-05T02:22:06.537Z,23.27
2019-04-05T02:24:37.014Z,24.70
2019-04-05T02:27:07.743Z,22.48
2019-04-05T02:29:38.353Z,23.37
2019-04-05T02:32:09.099Z,21.53
2019-04-05T02:34:40.163Z,23.38
2019-04-05T02:37:12.070Z,24.83
2019-04-05T02:39:42.822Z,26.68
2019-04-05T02:42:13.558Z,24.37
2019-04-05T02:44:46.655Z,22.73
2019-04-05T02:47:18.739Z,26.80
2019-04-05T02:49:50.151Z,24.63
2019-04-05T02:52:22.555Z,26.47
2019-04-05T02:54:54.147Z,29.27
2019-04-05T02:57:26.452Z,27.87
2019-04-05T02:59:57.552Z,23.30
2019-04-05T03:02:29.031Z,27.70
2019-04-05T03:05:00.677Z,27.80
2019-04-05T03:07:31.421Z,30.10
2019-04-05T03:10:03.141Z,24.55
2019-04-05T03:12:35.994Z,31.17
2019-04-05T03:15:07.927Z,25.97
2019-04-05T03:17:38.674Z,24.27
2019-04-05T03:20:09.804Z,27.70
2019-04-05T03:22:40.495Z,29.50
2019-04-05T03:25:11.315Z,30.00
2019-04-05T03:27:42.019Z,26.53
2019-04-05T03:30:12.712Z,27.27
2019-04-05T03:32:43.515Z,28.20
2019-04-05T03:35:14.537Z,24.57
2019-04-05T03:37:46.194Z,26.10
2019-04-05T03:40:16.833Z,28.70
2019-04-05T03:42:47.570Z,29.30
2019-04-05T03:45:18.496Z,28.37
2019-04-05T03:47:49.178Z,29.93
2019-04-05T03:50:19.882Z,32.83
2019-04-05T03:52:50.553Z,27.20
2019-04-05T03:55:22.043Z,25.53
2019-04-05T03:57:55.487Z,26.67
2019-04-05T04:00:27.052Z,32.70
2019-04-05T04:02:57.708Z,30.40
2019-04-05T04:05:28.924Z,27.83
2019-04-05T04:07:59.802Z,32.40
2019-04-05T04:10:30.805Z,30.50
2019-04-05T04:13:01.714Z,30.30
2019-04-05T04:15:33.493Z,32.67
2019-04-05T04:18:05.123Z,34.10
2019-04-05T04:20:40.509Z,30.77
2019-04-05T04:23:12.433Z,31.33
2019-04-05T04:25:43.964Z,32.13
2019-04-05T04:28:14.876Z,28.93
2019-04-05T04:30:46.501Z,32.60
2019-04-05T04:33:32.520Z,29.93
2019-04-05T04:36:04.799Z,36.30
2019-04-05T04:38:37.990Z,38.03
2019-04-05T04:41:13.281Z,31.27
2019-04-05T04:43:44.700Z,30.13
2019-04-05T04:46:15.353Z,30.27
2019-04-05T04:48:47.561Z,27.90
2019-04-05T04:51:19.503Z,31.50
2019-04-05T04:53:50.543Z,31.53
2019-04-05T04:56:21.225Z,34.57
2019-04-05T04:58:51.856Z,32.67
2019-04-05T05:01:22.537Z,31.97
2019-04-05T05:03:53.795Z,31.70
2019-04-05T05:06:24.759Z,33.40
2019-04-05T05:08:55.667Z,30.13
2019-04-05T05:11:26.101Z,32.43
2019-04-05T05:13:56.803Z,33.50
2019-04-05T05:16:27.483Z,32.13
2019-04-05T05:18:59.088Z,32.17
2019-04-05T05:21:30.353Z,31.67
2019-04-05T05:24:02.641Z,26.00
2019-04-05T05:26:33.393Z,32.80
2019-04-05T05:29:04.010Z,29.87
2019-04-05T05:31:34.771Z,36.17
2019-04-05T05:34:11.547Z,33.23
2019-04-05T05:36:42.195Z,29.70
2019-04-05T05:39:12.662Z,32.30
2019-04-05T05:41:43.283Z,28.77
2019-04-05T05:44:14.067Z,33.30
2019-04-05T05:46:44.877Z,31.23
2019-04-05T05:49:15.506Z,30.80
2019-04-05T05:51:47.940Z,33.07
2019-04-05T05:54:18.564Z,31.37
2019-04-05T05:56:49.136Z,29.50
2019-04-05T05:59:19.729Z,28.77
2019-04-05T06:01:50.335Z,28.67
2019-04-05T06:04:21.038Z,30.67
2019-04-05T06:06:51.728Z,31.20
2019-04-05T06:09:22.408Z,29.52
2019-04-05T06:11:53.119Z,31.15
2019-04-05T06:14:23.721Z,29.53
2019-04-05T06:16:56.395Z,30.80
2019-04-05T06:19:27.179Z,32.17
2019-04-05T06:21:57.769Z,26.07
2019-04-05T06:24:29.562Z,26.23
2019-04-05T06:27:00.475Z,33.38
2019-04-05T06:29:31.882Z,33.13
2019-04-05T06:32:04.223Z,27.50
2019-04-05T06:34:34.974Z,28.95
2019-04-05T06:37:06.542Z,35.33
2019-04-05T06:39:37.164Z,33.28
2019-04-05T06:42:07.702Z,34.88
2019-04-05T06:44:38.346Z,29.55
2019-04-05T06:47:09.391Z,33.25
2019-04-05T06:49:39.980Z,40.33
2019-04-05T06:52:10.598Z,38.00
2019-04-05T06:54:41.417Z,34.20
2019-04-05T06:57:12.384Z,37.10
2019-04-05T06:59:42.956Z,27.90
2019-04-05T07:02:13.703Z,30.23
2019-04-05T07:04:44.129Z,33.80
2019-04-05T07:07:17.652Z,31.10
2019-04-05T07:09:46.845Z,30.27
2019-04-05T07:12:20.571Z,32.00
2019-04-05T07:14:50.597Z,28.30
2019-04-05T07:17:21.081Z,29.57
2019-04-05T07:19:51.465Z,29.70
2019-04-05T07:22:34.202Z,28.30
2019-04-05T07:24:54.092Z,28.75
2019-04-05T07:27:24.482Z,29.55
2019-04-05T07:29:54.921Z,30.57
2019-04-05T07:32:25.586Z,31.23
2019-04-05T07:34:56.003Z,31.30
2019-04-05T07:37:27.110Z,31.27
2019-04-05T07:39:57.690Z,28.55
2019-04-05T07:42:28.313Z,29.32
2019-04-05T07:44:58.829Z,23.92
2019-04-05T07:47:29.687Z,27.13
2019-04-05T07:50:00.141Z,32.00
2019-04-05T07:52:31.380Z,27.93
2019-04-05T07:55:01.788Z,27.87
2019-04-05T07:57:32.344Z,31.62
2019-04-05T08:00:12.483Z,31.37
2019-04-05T08:02:42.942Z,34.13
2019-04-05T08:05:13.662Z,31.48
2019-04-05T08:07:47.213Z,43.78
2019-04-05T08:10:17.933Z,42.73
2019-04-05T08:12:50.713Z,50.58
2019-04-05T08:15:21.141Z,52.10
2019-04-05T08:17:51.642Z,53.23
2019-04-05T08:20:25.098Z,56.28
2019-04-05T08:22:54.435Z,54.50
2019-04-05T08:25:24.910Z,59.13
2019-04-05T08:27:55.410Z,61.20
2019-04-05T08:30:25.863Z,66.90
2019-04-05T08:32:56.434Z,62.08
2019-04-05T08:35:26.892Z,56.45
2019-04-05T08:37:57.824Z,59.85
2019-04-05T08:40:28.427Z,64.95
2019-04-05T08:42:59.416Z,62.98
2019-04-05T08:45:30.973Z,61.45
2019-04-05T08:48:01.527Z,67.10
2019-04-05T08:50:32.102Z,63.35
2019-04-05T08:53:02.632Z,60.05
2019-04-05T08:55:33.172Z,68.97
2019-04-05T08:58:03.891Z,60.25
2019-04-05T09:00:34.403Z,65.85
2019-04-05T09:03:05.958Z,66.22
2019-04-05T09:05:36.363Z,70.92
2019-04-05T09:08:06.795Z,72.15
2019-04-05T09:10:37.303Z,76.47
2019-04-05T09:13:07.924Z,75.22
2019-04-05T09:15:38.626Z,74.53
2019-04-05T09:18:09.453Z,67.95
2019-04-05T09:20:39.988Z,73.57
2019-04-05T09:23:11.995Z,80.03
2019-04-05T09:25:42.914Z,75.37
2019-04-05T09:28:13.369Z,77.58
2019-04-05T09:30:44.447Z,77.03
2019-04-05T09:33:14.866Z,79.62
2019-04-05T09:35:45.497Z,83.52
2019-04-05T09:38:16.182Z,81.02
2019-04-05T09:40:46.834Z,78.12
2019-04-05T09:43:17.462Z,80.77
2019-04-05T09:45:47.990Z,79.27
2019-04-05T09:48:18.528Z,86.02
2019-04-05T09:50:49.722Z,84.92
2019-04-05T09:53:20.186Z,84.32
2019-04-05T09:55:50.705Z,87.82
2019-04-05T09:58:21.404Z,87.85
2019-04-05T10:00:54.307Z,98.45
2019-04-05T10:03:24.830Z,90.73
2019-04-05T10:05:55.390Z,89.75
2019-04-05T10:08:26.020Z,96.32
2019-04-05T10:11:00.068Z,95.33
2019-04-05T10:13:30.683Z,98.42
2019-04-05T10:16:02.190Z,102.30
2019-04-05T10:18:32.692Z,95.70
2019-04-05T10:21:03.159Z,95.60
2019-04-05T10:23:33.981Z,96.10
2019-04-05T10:26:04.887Z,102.65
2019-04-05T10:28:35.623Z,99.83
2019-04-05T10:31:07.163Z,104.58
2019-04-05T10:33:37.601Z,102.53
2019-04-05T10:36:08.094Z,107.52
2019-04-05T10:38:38.574Z,111.75
2019-04-05T10:41:09.275Z,110.63
2019-04-05T10:43:40.069Z,107.85
2019-04-05T10:46:10.675Z,114.65
2019-04-05T10:48:41.175Z,109.48
2019-04-05T10:51:11.794Z,112.40
2019-04-05T10:53:42.992Z,106.20
2019-04-05T10:56:13.508Z,111.52
2019-04-05T10:58:44.613Z,110.78
2019-04-05T11:01:15.236Z,108.52
2019-04-05T11:03:45.821Z,119.37
2019-04-05T11:06:16.355Z,105.00
2019-04-05T11:08:46.864Z,109.25
2019-04-05T11:11:17.379Z,102.27
2019-04-05T11:13:47.935Z,100.20
2019-04-05T11:16:19.382Z,97.60
2019-04-05T11:18:49.947Z,101.42
2019-04-05T11:21:20.861Z,100.78
2019-04-05T11:23:53.592Z,92.50
2019-04-05T11:26:23.954Z,92.55
2019-04-05T11:28:54.661Z,96.87
2019-04-05T11:31:25.422Z,97.55
2019-04-05T11:33:56.542Z,94.50
2019-04-05T11:36:27.108Z,96.25
2019-04-05T11:38:57.787Z,98.65
2019-04-05T11:41:30.495Z,100.22
2019-04-05T11:44:02.493Z,100.70
2019-04-05T11:46:38.977Z,94.92
2019-04-05T11:49:09.800Z,94.97
2019-04-05T11:51:43.017Z,100.38
2019-04-05T11:54:13.812Z,97.67
2019-04-05T11:56:44.896Z,99.32
2019-04-05T11:59:16.243Z,95.97
2019-04-05T12:01:51.898Z,101.00
2019-04-05T12:04:22.421Z,95.50
2019-04-05T12:06:54.436Z,91.28
2019-04-05T12:09:26.109Z,93.80
2019-04-05T12:11:56.873Z,98.03
2019-04-05T12:14:30.414Z,96.37
2019-04-05T12:16:59.576Z,94.40
2019-04-05T12:19:30.346Z,89.05
2019-04-05T12:22:05.377Z,85.17
2019-04-05T12:24:34.918Z,85.10
2019-04-05T12:27:05.591Z,88.58
2019-04-05T12:29:36.246Z,86.10
2019-04-05T12:32:06.642Z,85.20
2019-04-05T12:34:37.213Z,82.27
2019-04-05T12:37:08.734Z,80.85
2019-04-05T12:39:39.266Z,80.87
2019-04-05T12:42:11.957Z,86.78
2019-04-05T12:44:44.985Z,80.03
2019-04-05T12:47:15.867Z,85.67
2019-04-05T12:49:46.814Z,75.80
2019-04-05T12:52:22.963Z,76.33
2019-04-05T12:54:54.049Z,74.17
2019-04-05T12:57:21.755Z,77.22
2019-04-05T12:59:55.761Z,71.67
2019-04-05T13:02:33.434Z,68.90
2019-04-05T13:04:56.941Z,72.35
2019-04-05T13:07:27.489Z,74.00
2019-04-05T13:09:58.032Z,67.30
2019-04-05T13:12:28.545Z,70.75
2019-04-05T13:15:11.283Z,62.70
2019-04-05T13:17:31.715Z,66.40
2019-04-05T13:20:02.539Z,62.40
2019-04-05T13:22:36.190Z,69.95
2019-04-05T13:25:10.760Z,70.10
2019-04-05T13:27:41.346Z,69.87
2019-04-05T13:30:11.626Z,64.47
2019-04-05T13:32:42.067Z,63.15
2019-04-05T13:35:12.851Z,64.22
2019-04-05T13:37:43.257Z,62.38
2019-04-05T13:40:13.928Z,62.58
2019-04-05T13:42:44.346Z,63.00
2019-04-05T13:45:15.448Z,64.12
2019-04-05T13:47:45.882Z,64.20
2019-04-05T13:50:21.804Z,68.12
2019-04-05T13:52:52.440Z,63.55
2019-04-05T13:55:23.179Z,67.53
2019-04-05T13:57:53.727Z,70.20
2019-04-05T14:00:24.480Z,67.82
2019-04-05T14:02:55.495Z,64.65
2019-04-05T14:05:31.523Z,68.92
2019-04-05T14:08:10.176Z,71.72
2019-04-05T14:11:06.285Z,72.05
2019-04-05T14:13:43.048Z,71.07
2019-04-05T14:16:17.970Z,66.25
2019-04-05T14:18:49.801Z,63.28
2019-04-05T14:21:22.316Z,61.85
2019-04-05T14:23:53.272Z,64.92
2019-04-05T14:26:24.460Z,65.05
2019-04-05T14:28:55.731Z,67.55
2019-04-05T14:31:26.751Z,62.58
2019-04-05T14:33:58.289Z,64.32
2019-04-05T14:36:28.737Z,65.03
2019-04-05T14:38:59.171Z,65.78
2019-04-05T14:41:30.890Z,63.35
2019-04-05T14:44:01.355Z,58.38
2019-04-05T14:46:33.699Z,62.60
2019-04-05T14:49:11.419Z,59.27
2019-04-05T14:51:52.578Z,63.70
2019-04-05T14:54:14.303Z,58.98
2019-04-05T14:56:45.150Z,62.65
2019-04-05T14:59:16.255Z,66.35
2019-04-05T15:01:47.080Z,61.95
2019-04-05T15:04:18.408Z,63.30
2019-04-05T15:06:50.645Z,60.48
2019-04-05T15:09:23.670Z,66.80
2019-04-05T15:11:53.344Z,61.48
2019-04-05T15:14:23.893Z,67.05
2019-04-05T15:16:59.696Z,62.23
2019-04-05T15:19:30.706Z,63.05
2019-04-05T15:22:06.083Z,65.30
2019-04-05T15:24:34.141Z,63.42
2019-04-05T15:27:09.398Z,61.73
2019-04-05T15:29:39.912Z,60.17
2019-04-05T15:32:10.304Z,63.08
2019-04-05T15:34:41.135Z,64.20
2019-04-05T15:37:11.833Z,61.35
2019-04-05T15:39:44.476Z,62.73
2019-04-05T15:42:15.485Z,62.83
2019-04-05T15:44:46.731Z,61.00
2019-04-05T15:47:17.243Z,63.55
2019-04-05T15:49:51.528Z,63.92
2019-04-05T15:52:21.044Z,64.72
2019-04-05T15:54:51.480Z,62.98
2019-04-05T15:57:21.980Z,63.02
2019-04-05T15:59:52.466Z,61.50
2019-04-05T16:02:23.264Z,62.43
2019-04-05T16:04:53.866Z,63.00
2019-04-05T16:07:24.319Z,63.63
2019-04-05T16:09:55.530Z,65.83
2019-04-05T16:12:25.970Z,65.28
2019-04-05T16:15:00.338Z,61.33
2019-04-05T16:17:30.811Z,66.25
2019-04-05T16:20:12.403Z,65.42
2019-04-05T16:22:42.894Z,66.87
2019-04-05T16:25:14.004Z,70.20
2019-04-05T16:27:47.150Z,68.25
2019-04-05T16:30:18.255Z,69.12
2019-04-05T16:32:54.862Z,70.55
2019-04-05T16:35:27.989Z,64.60
2019-04-05T16:38:08.511Z,66.77
2019-04-05T16:40:39.140Z,71.60
2019-04-05T16:43:09.750Z,72.90
2019-04-05T16:45:41.848Z,67.87
2019-04-05T16:48:12.545Z,64.07
2019-04-05T16:50:43.088Z,71.45
2019-04-05T16:53:14.327Z,65.28
2019-04-05T16:55:45.078Z,68.85
2019-04-05T16:58:15.969Z,67.50
2019-04-05T17:00:46.582Z,65.05
2019-04-05T17:03:17.275Z,69.60
2019-04-05T17:05:48.111Z,64.25
2019-04-05T17:08:18.894Z,71.80
2019-04-05T17:10:49.447Z,67.08
2019-04-05T17:13:20.046Z,66.60
2019-04-05T17:15:51.203Z,68.35
2019-04-05T17:18:21.713Z,68.47
2019-04-05T17:20:52.143Z,66.53
2019-04-05T17:23:22.699Z,68.85
2019-04-05T17:25:53.278Z,72.12
2019-04-05T17:28:24.670Z,72.62
2019-04-05T17:30:56.517Z,68.97
2019-04-05T17:33:28.123Z,64.75
2019-04-05T17:35:58.770Z,68.75
2019-04-05T17:38:29.395Z,70.15
2019-04-05T17:41:04.483Z,63.35
2019-04-05T17:43:34.894Z,64.55
2019-04-05T17:46:05.318Z,72.82
2019-04-05T17:48:36.097Z,58.65
2019-04-05T17:51:06.725Z,63.05
2019-04-05T17:53:37.322Z,64.92
2019-04-05T17:56:08.055Z,65.72
2019-04-05T17:58:39.373Z,65.20
2019-04-05T18:01:10.071Z,62.73
2019-04-05T18:03:40.786Z,65.83
2019-04-05T18:06:11.345Z,64.97
2019-04-05T18:08:42.129Z,62.73
2019-04-05T18:11:14.096Z,63.60
2019-04-05T18:13:52.235Z,69.05
2019-04-05T18:16:24.974Z,68.57
2019-04-05T18:23:25.026Z,68.20
2019-04-05T18:26:00.129Z,67.10
2019-04-05T18:28:31.010Z,69.35
2019-04-05T18:31:01.970Z,65.92
2019-04-05T18:33:40.648Z,65.78
2019-04-05T18:36:12.724Z,65.80
2019-04-05T18:38:43.340Z,67.87
2019-04-05T18:41:14.401Z,68.07
2019-04-05T18:43:45.030Z,69.60
2019-04-05T18:46:16.572Z,64.80
2019-04-05T18:48:47.315Z,66.87
2019-04-05T18:51:17.838Z,68.05
2019-04-05T18:53:50.207Z,67.60
2019-04-05T18:56:20.909Z,68.12
2019-04-05T18:58:57.631Z,75.83
2019-04-05T19:01:40.153Z,74.30
2019-04-05T19:04:13.867Z,73.77
2019-04-05T19:06:44.396Z,72.60
2019-04-05T19:09:15.135Z,67.95
2019-04-05T19:11:45.763Z,68.15
2019-04-05T19:14:16.199Z,67.27
2019-04-05T19:16:55.251Z,64.65
2019-04-05T19:19:25.709Z,65.65
2019-04-05T19:21:56.462Z,73.55
2019-04-05T19:24:27.171Z,77.37
2019-04-05T19:26:57.746Z,71.25
2019-04-05T19:29:28.601Z,71.33
2019-04-05T19:49:50.995Z,66.67
2019-04-05T19:52:21.702Z,68.95
2019-04-05T19:54:52.395Z,64.07
2019-04-05T19:57:23.518Z,63.28
2019-04-05T19:59:56.329Z,65.22
2019-04-05T20:02:28.451Z,67.08
2019-04-05T20:05:11.228Z,68.42
2019-04-05T20:07:45.453Z,62.50
2019-04-05T20:10:18.844Z,64.82
2019-04-05T20:12:49.450Z,67.22
2019-04-05T20:15:20.148Z,66.40
2019-04-05T20:17:51.129Z,62.80
2019-04-05T20:20:21.921Z,66.33
2019-04-05T20:22:52.658Z,64.15
2019-04-05T20:25:23.365Z,67.83
2019-04-05T20:27:55.035Z,67.47
2019-04-05T20:30:26.019Z,68.62
2019-04-05T20:32:57.038Z,67.03
2019-04-05T20:35:27.965Z,70.00
2019-04-05T20:37:59.109Z,64.43
2019-04-05T20:40:38.918Z,61.10
2019-04-05T20:43:12.211Z,63.50
2019-04-05T20:45:44.990Z,67.00
2019-04-05T20:48:15.583Z,62.67
2019-04-05T20:50:46.097Z,62.70
2019-04-05T20:53:17.285Z,67.17
2019-04-05T20:55:48.295Z,67.80
2019-04-05T20:58:18.882Z,66.37
2019-04-05T21:00:49.637Z,62.23
2019-04-05T21:03:20.262Z,63.17
2019-04-05T21:05:51.112Z,64.70
2019-04-05T21:08:21.672Z,65.23
2019-04-05T21:10:52.540Z,68.07
2019-04-05T21:13:23.072Z,67.23
2019-04-05T21:15:53.594Z,65.35
2019-04-05T21:18:24.115Z,65.53
2019-04-05T21:20:54.708Z,64.27
2019-04-05T21:23:25.298Z,63.83
2019-04-05T21:25:55.862Z,66.40
2019-04-05T21:28:26.321Z,61.47
2019-04-05T21:30:56.764Z,66.13
2019-04-05T21:33:27.303Z,67.30
2019-04-05T21:35:58.005Z,69.53
2019-04-05T21:38:28.491Z,65.77
2019-04-05T21:41:01.723Z,67.57
2019-04-05T21:43:32.222Z,67.75
2019-04-05T21:46:02.798Z,64.62
2019-04-05T21:48:33.265Z,64.90
2019-04-05T21:51:03.859Z,66.13
2019-04-05T21:53:34.735Z,72.27
2019-04-05T21:56:05.464Z,72.08
2019-04-05T21:58:35.896Z,70.67
2019-04-05T22:01:10.226Z,74.17
2019-04-05T22:03:42.590Z,66.47
2019-04-05T22:06:13.084Z,69.03
2019-04-05T22:08:44.638Z,68.77
2019-04-05T22:11:15.219Z,67.43
2019-04-05T22:13:45.724Z,69.37
2019-04-05T22:16:16.149Z,68.70
2019-04-05T22:18:46.569Z,66.87
2019-04-05T22:21:17.291Z,75.00
2019-04-05T22:23:47.701Z,72.37
2019-04-05T22:26:19.080Z,63.60
2019-04-05T22:28:49.659Z,67.42
2019-04-05T22:31:20.105Z,68.73
2019-04-05T22:33:50.831Z,69.57
2019-04-05T22:36:21.316Z,76.13
2019-04-05T22:38:51.742Z,69.53
2019-04-05T22:41:22.667Z,76.23
2019-04-05T22:43:53.125Z,78.17
2019-04-05T22:46:23.655Z,78.83
2019-04-05T22:48:54.101Z,75.97
2019-04-05T22:51:24.640Z,74.30
2019-04-05T22:53:55.144Z,76.30
2019-04-05T22:56:25.593Z,74.50
2019-04-05T22:58:56.379Z,77.90
2019-04-05T23:01:26.913Z,74.42
2019-04-05T23:03:57.546Z,74.23
2019-04-05T23:06:28.064Z,71.13
2019-04-05T23:08:58.598Z,69.70
2019-04-05T23:11:29.008Z,72.27
2019-04-05T23:13:59.430Z,72.90
2019-04-05T23:16:29.975Z,68.93
2019-04-05T23:19:00.443Z,74.93
2019-04-05T23:21:31.093Z,71.07
2019-04-05T23:24:01.502Z,73.93
2019-04-05T23:26:31.974Z,70.70
2019-04-05T23:29:02.439Z,69.87
2019-04-05T23:31:32.995Z,73.20
2019-04-05T23:34:03.720Z,68.20
2019-04-05T23:36:34.294Z,66.03
2019-04-05T23:39:05.889Z,74.27
2019-04-05T23:41:36.436Z,67.17
2019-04-05T23:44:06.983Z,72.27
2019-04-05T23:46:37.612Z,69.73
2019-04-05T23:49:08.121Z,66.93
2019-04-05T23:51:38.946Z,63.60
2019-04-05T23:54:09.668Z,61.60
2019-04-05T23:56:40.176Z,70.47
2019-04-05T23:59:10.625Z,66.13
